Time;durP1;ratioP1;P1;durP2;ratioP2;P2;SDS_P1;SDS_P2;PMS_P1;PMS_P2;Temp;Humidity;BMP_temperature;BMP_pressure;BME280_temperature;BME280_humidity;BME280_pressure;Samples;Min_cycle;Max_cycle;Signal;HPM_P1;HPM_P2
2024/01/09 00:02:16;;;;;;;7.82;5.63;;;;;;;-146.58;100.00;69501.63;5031306;28;20048;-63
2024/01/09 00:04:42;;;;;;;7.18;6.55;;;;;;;-146.58;100.00;69501.63;5029954;28;20038;-63
2024/01/09 00:07:07;;;;;;;7.85;5.53;;;;;;;-146.58;100.00;69501.63;5031458;28;20025;-63
2024/01/09 00:09:35;;;;;;;11.02;6.28;;;;;;;-146.58;100.00;69501.63;5029539;28;20099;-63
2024/01/09 00:12:01;;;;;;;9.32;6.07;;;;;;;-146.58;100.00;69501.63;5031560;28;20021;-63
2024/01/09 00:14:26;;;;;;;10.13;6.28;;;;;;;-146.58;100.00;69501.63;5029359;28;20048;-63
2024/01/09 00:16:52;;;;;;;7.63;6.90;;;;;;;-146.58;100.00;69501.63;5031603;28;20021;-63
2024/01/09 00:19:17;;;;;;;8.27;7.47;;;;;;;-146.58;100.00;69501.63;5029844;28;20045;-63
2024/01/09 00:21:46;;;;;;;7.85;6.88;;;;;;;-146.58;100.00;69501.63;5030719;28;20033;-63
2024/01/09 00:24:11;;;;;;;6.78;6.18;;;;;;;-146.58;100.00;69501.63;5030077;28;20041;-63
2024/01/09 00:26:41;;;;;;;7.40;6.70;;;;;;;-146.58;100.00;69501.63;5031099;28;20022;-63
2024/01/09 00:29:06;;;;;;;6.15;5.55;;;;;;;-146.58;100.00;69501.63;5029397;28;20566;-63
2024/01/09 00:31:31;;;;;;;7.00;6.25;;;;;;;-146.58;100.00;69501.63;5030850;28;20040;-64
2024/01/09 00:33:57;;;;;;;6.82;6.05;;;;;;;-146.58;100.00;69501.63;5029730;28;20041;-63
2024/01/09 00:36:23;;;;;;;8.27;5.97;;;;;;;-146.58;100.00;69501.63;5030758;28;20028;-63
2024/01/09 00:38:49;;;;;;;8.50;7.35;;;;;;;-146.58;100.00;69501.63;5028919;28;20496;-64
2024/01/09 00:41:14;;;;;;;7.22;6.32;;;;;;;-146.58;100.00;69501.63;5030867;28;20033;-63
2024/01/09 00:43:40;;;;;;;6.93;6.22;;;;;;;-146.58;100.00;69501.63;5029097;28;20030;-63
2024/01/09 00:46:05;;;;;;;8.00;5.80;;;;;;;-146.58;100.00;69501.63;5030870;28;20377;-63
2024/01/09 00:48:30;;;;;;;6.85;6.30;;;;;;;-146.58;100.00;69501.63;5029414;28;20025;-63
2024/01/09 00:50:56;;;;;;;8.73;7.38;;;;;;;-146.58;100.00;69501.63;5030779;28;20013;-63
2024/01/09 00:53:21;;;;;;;7.97;7.18;;;;;;;-146.58;100.00;69501.63;5030609;28;20075;-63
2024/01/09 00:55:47;;;;;;;7.80;6.88;;;;;;;-146.58;100.00;69501.63;5029409;28;20049;-63
2024/01/09 00:58:12;;;;;;;9.73;6.78;;;;;;;-146.58;100.00;69501.63;5030833;28;20018;-63
2024/01/09 01:00:37;;;;;;;6.63;6.03;;;;;;;-146.58;100.00;69501.63;5028717;28;20045;-63
2024/01/09 01:03:03;;;;;;;6.82;6.13;;;;;;;-146.58;100.00;69501.63;5030753;28;20056;-64
2024/01/09 01:05:29;;;;;;;6.72;6.03;;;;;;;-146.58;100.00;69501.63;5029298;28;20046;-63
2024/01/09 01:07:54;;;;;;;10.25;7.40;;;;;;;-146.58;100.00;69501.63;5030469;28;20512;-63
2024/01/09 01:10:19;;;;;;;7.13;6.43;;;;;;;-146.58;100.00;69501.63;5029336;28;20526;-63
2024/01/09 01:12:45;;;;;;;7.35;6.65;;;;;;;-146.58;100.00;69501.63;5030459;28;20033;-63
2024/01/09 01:15:10;;;;;;;9.10;7.78;;;;;;;-146.58;100.00;69501.63;5028965;28;20064;-63
2024/01/09 01:17:36;;;;;;;9.20;6.60;;;;;;;-146.58;100.00;69501.63;5030726;28;20026;-63
2024/01/09 01:20:02;;;;;;;7.90;7.13;;;;;;;-146.58;100.00;69501.63;5029258;28;20038;-63
2024/01/09 01:22:27;;;;;;;7.38;6.57;;;;;;;-146.58;100.00;69501.63;5030368;28;20025;-63
2024/01/09 01:24:53;;;;;;;6.65;6.00;;;;;;;-146.58;100.00;69501.63;5029293;28;20041;-63
2024/01/09 01:27:18;;;;;;;9.75;7.18;;;;;;;-146.58;100.00;69501.63;5030509;28;20018;-63
2024/01/09 01:29:43;;;;;;;7.03;6.30;;;;;;;-146.58;100.00;69501.63;5028723;28;20045;-63
2024/01/09 01:32:10;;;;;;;7.60;6.88;;;;;;;-146.58;100.00;69501.63;5030710;28;20061;-63
2024/01/09 01:34:37;;;;;;;8.88;7.72;;;;;;;-146.58;100.00;69501.63;5028934;28;20049;-63
2024/01/09 01:37:02;;;;;;;7.82;6.97;;;;;;;-146.58;100.00;69501.63;5030071;28;20510;-63
2024/01/09 01:39:27;;;;;;;7.03;6.35;;;;;;;-146.58;100.00;69501.63;5028586;28;20049;-63
2024/01/09 01:41:53;;;;;;;6.72;5.85;;;;;;;-146.58;100.00;69501.63;5030304;28;20025;-63
2024/01/09 01:44:18;;;;;;;6.07;5.57;;;;;;;-146.58;100.00;69501.63;5028900;28;20037;-63
2024/01/09 01:46:45;;;;;;;12.52;7.82;;;;;;;-146.58;100.00;69501.63;5030153;28;20531;-63
2024/01/09 01:49:12;;;;;;;9.85;7.82;;;;;;;-146.58;100.00;69501.63;5028705;28;20099;-63
2024/01/09 01:51:39;;;;;;;7.63;6.13;;;;;;;-146.58;100.00;69501.63;5030691;28;20025;-63
2024/01/09 01:54:05;;;;;;;7.03;6.07;;;;;;;-146.58;100.00;69501.63;5032641;28;20041;-63
2024/01/09 01:56:31;;;;;;;10.75;6.75;;;;;;;-146.58;100.00;69501.63;5033735;28;20087;-64
2024/01/09 01:58:57;;;;;;;9.48;6.90;;;;;;;-146.58;100.00;69501.63;5032184;28;20050;-64
2024/01/09 02:01:23;;;;;;;7.88;6.72;;;;;;;-146.58;100.00;69501.63;5033950;28;20022;-63
2024/01/09 02:03:48;;;;;;;10.13;6.63;;;;;;;-146.58;100.00;69501.63;5032221;28;20462;-64
2024/01/09 02:06:14;;;;;;;9.48;6.55;;;;;;;-146.58;100.00;69501.63;5033520;28;20528;-64
2024/01/09 02:08:41;;;;;;;9.98;6.95;;;;;;;-146.58;100.00;69501.63;5031987;28;20468;-63
2024/01/09 02:11:07;;;;;;;8.50;6.93;;;;;;;-146.58;100.00;69501.63;5033576;28;20033;-64
2024/01/09 02:13:32;;;;;;;7.55;6.85;;;;;;;-146.58;100.00;69501.63;5031606;28;20029;-63
2024/01/09 02:15:58;;;;;;;10.30;6.15;;;;;;;-146.58;100.00;69501.63;5033521;28;20022;-64
2024/01/09 02:18:23;;;;;;;9.40;7.10;;;;;;;-146.58;100.00;69501.63;5033542;28;20059;-64
2024/01/09 02:20:48;;;;;;;10.68;7.03;;;;;;;-146.58;100.00;69501.63;5031548;28;20042;-64
2024/01/09 02:23:14;;;;;;;13.20;7.60;;;;;;;-146.58;100.00;69501.63;5033603;28;20029;-64
2024/01/09 02:25:39;;;;;;;6.93;6.10;;;;;;;-146.58;100.00;69501.63;5031680;28;20119;-64
2024/01/09 02:28:12;;;;;;;9.02;7.32;;;;;;;-146.58;100.00;69501.63;5033111;28;20033;-64
2024/01/09 02:30:38;;;;;;;9.27;7.38;;;;;;;-146.58;100.00;69501.63;5031649;28;20044;-64
2024/01/09 02:33:06;;;;;;;8.77;7.97;;;;;;;-146.58;100.00;69501.63;5033602;28;20029;-64
2024/01/09 02:35:32;;;;;;;10.57;8.30;;;;;;;-146.58;100.00;69501.63;5031374;28;20107;-63
2024/01/09 02:37:57;;;;;;;8.98;8.10;;;;;;;-146.58;100.00;69501.63;5033159;28;20124;-64
2024/01/09 02:40:23;;;;;;;9.68;8.23;;;;;;;-146.58;100.00;69501.63;5031533;28;20053;-63
2024/01/09 02:42:48;;;;;;;8.00;7.25;;;;;;;-146.58;100.00;69501.63;5032817;28;20029;-64
2024/01/09 02:45:13;;;;;;;14.63;7.25;;;;;;;-146.58;100.00;69501.63;5031662;28;20738;-64
2024/01/09 02:47:39;;;;;;;13.15;8.75;;;;;;;-146.58;100.00;69501.63;5032899;28;20021;-66
2024/01/09 02:50:05;;;;;;;9.60;8.48;;;;;;;-146.58;100.00;69501.63;5030863;28;20041;-66
2024/01/09 02:52:30;;;;;;;8.43;6.32;;;;;;;-146.58;100.00;69501.63;5032641;28;20111;-66
2024/01/09 02:54:55;;;;;;;8.68;7.78;;;;;;;-146.58;100.00;69501.63;5031490;28;20071;-65
2024/01/09 02:57:21;;;;;;;10.32;8.05;;;;;;;-146.58;100.00;69501.63;5032614;28;20021;-63
2024/01/09 02:59:46;;;;;;;7.63;5.95;;;;;;;-146.58;100.00;69501.63;5031178;28;20049;-63
2024/01/09 03:02:11;;;;;;;9.15;7.82;;;;;;;-146.58;100.00;69501.63;5032284;28;20029;-63
2024/01/09 03:04:37;;;;;;;8.70;6.65;;;;;;;-146.58;100.00;69501.63;5030907;28;20386;-63
2024/01/09 03:07:02;;;;;;;11.60;7.45;;;;;;;-146.58;100.00;69501.63;5032714;28;20022;-64
2024/01/09 03:09:27;;;;;;;10.68;7.53;;;;;;;-146.58;100.00;69501.63;5030704;28;20046;-64
2024/01/09 03:11:53;;;;;;;9.15;7.95;;;;;;;-146.58;100.00;69501.63;5032304;28;20026;-64
2024/01/09 03:14:19;;;;;;;9.68;6.78;;;;;;;-146.58;100.00;69501.63;5030956;28;20041;-63
2024/01/09 03:16:48;;;;;;;6.50;5.90;;;;;;;-146.58;100.00;69501.63;5032262;28;20030;-63
2024/01/09 03:19:13;;;;;;;8.98;7.45;;;;;;;-146.58;100.00;69501.63;5030900;28;20041;-63
2024/01/09 03:21:39;;;;;;;11.95;7.53;;;;;;;-146.58;100.00;69501.63;5032150;28;20047;-63
2024/01/09 03:24:04;;;;;;;8.60;7.32;;;;;;;-146.58;100.00;69501.63;5030940;28;20404;-63
2024/01/09 03:26:30;;;;;;;8.57;7.53;;;;;;;-146.58;100.00;69501.63;5031849;28;20060;-63
2024/01/09 03:28:55;;;;;;;8.43;7.63;;;;;;;-146.58;100.00;69501.63;5031008;28;20037;-63
2024/01/09 03:31:21;;;;;;;10.32;8.32;;;;;;;-146.58;100.00;69501.63;5032261;28;20473;-63
2024/01/09 03:33:47;;;;;;;9.38;7.20;;;;;;;-146.58;100.00;69501.63;5030449;28;20036;-63
2024/01/09 03:36:13;;;;;;;10.98;7.60;;;;;;;-146.58;100.00;69501.63;5032303;28;20025;-63
2024/01/09 03:38:43;;;;;;;11.18;8.57;;;;;;;-146.58;100.00;69501.63;5029900;28;20048;-62
2024/01/09 03:41:09;;;;;;;9.85;8.10;;;;;;;-146.58;100.00;69501.63;5032003;28;20026;-62
2024/01/09 03:43:34;;;;;;;9.52;8.57;;;;;;;-146.58;100.00;69501.63;5030240;28;20488;-62
2024/01/09 03:45:59;;;;;;;8.82;7.50;;;;;;;-146.58;100.00;69501.63;5031970;28;20103;-63
2024/01/09 03:48:25;;;;;;;9.55;8.55;;;;;;;-146.58;100.00;69501.63;5032022;28;20017;-63
2024/01/09 03:50:50;;;;;;;10.13;8.25;;;;;;;-146.58;100.00;69501.63;5029545;28;20056;-63
2024/01/09 03:53:16;;;;;;;9.32;8.43;;;;;;;-146.58;100.00;69501.63;5032072;28;20025;-63
2024/01/09 03:55:41;;;;;;;9.77;7.63;;;;;;;-146.58;100.00;69501.63;5030251;28;20500;-63
2024/01/09 03:58:07;;;;;;;11.23;8.02;;;;;;;-146.58;100.00;69501.63;5031193;28;20025;-63
2024/01/09 04:00:33;;;;;;;9.48;8.45;;;;;;;-146.58;100.00;69501.63;5030035;28;20132;-63
2024/01/09 04:02:58;;;;;;;8.40;7.57;;;;;;;-146.58;100.00;69501.63;5031972;28;20071;-64
2024/01/09 04:05:23;;;;;;;10.10;7.40;;;;;;;-146.58;100.00;69501.63;5029792;28;20463;-64
2024/01/09 04:07:49;;;;;;;10.90;7.65;;;;;;;-146.58;100.00;69501.63;5031373;28;20021;-64
2024/01/09 04:10:14;;;;;;;9.27;8.25;;;;;;;-146.58;100.00;69501.63;5029826;28;20393;-65
2024/01/09 04:12:39;;;;;;;10.20;9.07;;;;;;;-146.58;100.00;69501.63;5030900;28;20030;-65
2024/01/09 04:15:05;;;;;;;10.88;8.70;;;;;;;-146.58;100.00;69501.63;5029170;28;20048;-64
2024/01/09 04:17:31;;;;;;;9.75;8.35;;;;;;;-146.58;100.00;69501.63;5031315;28;20021;-64
2024/01/09 04:19:56;;;;;;;10.32;8.70;;;;;;;-146.58;100.00;69501.63;5029543;28;20087;-64
2024/01/09 04:22:22;;;;;;;11.77;9.25;;;;;;;-146.58;100.00;69501.63;5031226;28;20033;-64
2024/01/09 04:24:47;;;;;;;13.82;8.38;;;;;;;-146.58;100.00;69501.63;5029799;28;20037;-63
2024/01/09 04:27:12;;;;;;;10.02;8.38;;;;;;;-146.58;100.00;69501.63;5030916;28;20389;-63
2024/01/09 04:29:38;;;;;;;18.77;8.63;;;;;;;-146.58;100.00;69501.63;5029271;28;20045;-63
2024/01/09 04:32:03;;;;;;;13.60;10.30;;;;;;;-146.58;100.00;69501.63;5031243;28;20087;-63
2024/01/09 04:34:29;;;;;;;11.48;9.50;;;;;;;-146.58;100.00;69501.63;5061047;28;20068;-63
2024/01/09 04:36:54;;;;;;;12.18;10.10;;;;;;;-146.58;100.00;69501.63;5031115;28;20033;-63
2024/01/09 04:39:19;;;;;;;11.05;7.78;;;;;;;-146.58;100.00;69501.63;5029815;28;20052;-62
2024/01/09 04:41:45;;;;;;;13.90;11.30;;;;;;;-146.58;100.00;69501.63;5030354;28;20068;-63
2024/01/09 04:44:10;;;;;;;13.35;9.27;;;;;;;-146.58;100.00;69501.63;5029765;28;20098;-63
2024/01/09 04:46:36;;;;;;;10.07;8.18;;;;;;;-146.58;100.00;69501.63;5031022;28;20025;-63
2024/01/09 04:49:04;;;;;;;13.77;10.38;;;;;;;-146.58;100.00;69501.63;5029103;28;20521;-63
2024/01/09 04:51:30;;;;;;;14.95;11.13;;;;;;;-146.58;100.00;69501.63;5031066;28;20380;-63
2024/01/09 04:53:56;;;;;;;18.52;11.77;;;;;;;-146.58;100.00;69501.63;5029637;28;20377;-63
2024/01/09 04:56:21;;;;;;;15.65;9.57;;;;;;;-146.58;100.00;69501.63;5030724;28;20028;-64
2024/01/09 04:58:46;;;;;;;10.68;9.30;;;;;;;-146.58;100.00;69501.63;5029022;28;20036;-64
2024/01/09 05:01:12;;;;;;;12.50;9.05;;;;;;;-146.58;100.00;69501.63;5030921;28;20033;-64
2024/01/09 05:03:37;;;;;;;11.75;9.93;;;;;;;-146.58;100.00;69501.63;5028927;28;20032;-64
2024/01/09 05:06:03;;;;;;;11.00;9.32;;;;;;;-146.58;100.00;69501.63;5030881;28;20025;-64
2024/01/09 05:08:28;;;;;;;11.25;8.45;;;;;;;-146.58;100.00;69501.63;5030468;28;20029;-64
2024/01/09 05:10:54;;;;;;;11.65;10.23;;;;;;;-146.58;100.00;69501.63;5028865;28;20062;-63
2024/01/09 05:13:19;;;;;;;10.95;9.85;;;;;;;-146.58;100.00;69501.63;5029882;28;20025;-61
2024/01/09 05:15:44;;;;;;;14.52;10.07;;;;;;;-146.58;100.00;69501.63;5028412;28;20049;-62
2024/01/09 05:18:11;;;;;;;15.50;9.02;;;;;;;-146.58;100.00;69501.63;5029680;28;20033;-65
2024/01/09 05:20:36;;;;;;;16.58;11.68;;;;;;;-146.58;100.00;69501.63;5028190;28;20118;-64
2024/01/09 05:23:02;;;;;;;16.63;10.20;;;;;;;-146.58;100.00;69501.63;5029094;28;20488;-63
2024/01/09 05:25:27;;;;;;;11.48;9.30;;;;;;;-146.58;100.00;69501.63;5028911;28;20049;-57
2024/01/09 05:27:52;;;;;;;16.33;9.30;;;;;;;-146.58;100.00;69501.63;5034554;28;20115;-57
2024/01/09 05:30:18;;;;;;;11.48;8.68;;;;;;;-146.58;100.00;69501.63;5033056;28;20084;-57
2024/01/09 05:32:43;;;;;;;11.57;8.93;;;;;;;-146.58;100.00;69501.63;5033582;28;20037;-57
2024/01/09 05:35:09;;;;;;;20.55;11.88;;;;;;;-146.58;100.00;69501.63;5032783;28;20417;-57
2024/01/09 05:37:35;;;;;;;18.65;13.00;;;;;;;-146.58;100.00;69501.63;5033880;28;20167;-57
2024/01/09 05:40:00;;;;;;;15.43;11.68;;;;;;;-146.58;100.00;69501.63;5032543;28;20486;-57
2024/01/09 05:42:25;;;;;;;19.50;14.23;;;;;;;-146.58;100.00;69501.63;5033819;28;20034;-60
2024/01/09 05:44:51;;;;;;;13.60;9.93;;;;;;;-146.58;100.00;69501.63;5032528;28;20037;-60
2024/01/09 05:47:16;;;;;;;15.20;10.02;;;;;;;-146.58;100.00;69501.63;5033516;28;20025;-60
2024/01/09 05:49:42;;;;;;;15.15;12.02;;;;;;;-146.58;100.00;69501.63;5032536;28;20463;-60
2024/01/09 05:52:07;;;;;;;11.02;9.93;;;;;;;-146.58;100.00;69501.63;5034318;28;20048;-60
2024/01/09 05:54:32;;;;;;;10.48;8.65;;;;;;;-146.58;100.00;69501.63;5032037;28;20029;-57
2024/01/09 05:56:58;;;;;;;12.15;10.88;;;;;;;-146.58;100.00;69501.63;5034093;28;20020;-57
2024/01/09 05:59:23;;;;;;;13.05;9.75;;;;;;;-146.58;100.00;69501.63;5032536;28;20017;-60
2024/01/09 06:01:49;;;;;;;20.38;12.07;;;;;;;-146.58;100.00;69501.63;5033681;28;20021;-57
2024/01/09 06:04:14;;;;;;;17.48;11.65;;;;;;;-146.58;100.00;69501.63;5033794;28;20036;-60
2024/01/09 06:06:39;;;;;;;13.27;10.32;;;;;;;-146.58;100.00;69501.63;5028388;28;20045;-60
2024/01/09 06:09:05;;;;;;;10.98;9.45;;;;;;;-146.58;100.00;69501.63;5032585;28;20024;-60
2024/01/09 06:11:31;;;;;;;15.45;9.45;;;;;;;-146.58;100.00;69501.63;5029465;28;20044;-60
2024/01/09 06:13:56;;;;;;;17.83;12.13;;;;;;;-146.58;100.00;69501.63;5032141;28;20387;-60
2024/01/09 06:16:22;;;;;;;13.80;11.90;;;;;;;-146.58;100.00;69501.63;5031062;28;20037;-60
2024/01/09 06:18:48;;;;;;;11.90;9.98;;;;;;;-146.58;100.00;69501.63;5031897;28;20472;-58
2024/01/09 06:21:14;;;;;;;13.95;9.93;;;;;;;-146.58;100.00;69501.63;5031103;28;20045;-58
2024/01/09 06:23:39;;;;;;;12.05;10.10;;;;;;;-146.58;100.00;69501.63;5032364;28;20435;-58
2024/01/09 06:26:04;;;;;;;17.58;13.43;;;;;;;-146.58;100.00;69501.63;5030416;28;20103;-58
2024/01/09 06:28:31;;;;;;;12.93;10.57;;;;;;;-146.58;100.00;69501.63;5030685;28;20045;-56
2024/01/09 06:30:56;;;;;;;14.98;10.73;;;;;;;-146.58;100.00;69501.63;5032026;28;20021;-57
2024/01/09 06:33:22;;;;;;;16.65;9.82;;;;;;;-146.58;100.00;69501.63;5032670;28;20477;-58
2024/01/09 06:35:47;;;;;;;14.02;12.15;;;;;;;-146.58;100.00;69501.63;5031749;28;20037;-57
2024/01/09 06:38:13;;;;;;;14.90;11.93;;;;;;;-146.58;100.00;69501.63;5032117;28;20026;-57
2024/01/09 06:40:39;;;;;;;13.02;9.70;;;;;;;-146.58;100.00;69501.63;5031164;28;20084;-60
2024/01/09 06:43:05;;;;;;;16.73;9.85;;;;;;;-146.58;100.00;69501.63;5031936;28;20029;-60
2024/01/09 06:45:31;;;;;;;11.27;10.00;;;;;;;-146.58;100.00;69501.63;5027346;28;20404;-57
2024/01/09 06:47:57;;;;;;;13.27;11.27;;;;;;;-146.58;100.00;69501.63;5031619;28;20025;-57
2024/01/09 06:50:22;;;;;;;16.00;11.20;;;;;;;-146.58;100.00;69501.63;5031017;28;20052;-57
2024/01/09 06:52:47;;;;;;;15.68;10.93;;;;;;;-146.58;100.00;69501.63;5032498;28;20197;-57
2024/01/09 06:55:13;;;;;;;11.93;9.85;;;;;;;-146.58;100.00;69501.63;5030980;28;20040;-58
2024/01/09 06:57:38;;;;;;;14.68;10.15;;;;;;;-146.58;100.00;69501.63;5032616;28;20036;-58
2024/01/09 07:00:05;;;;;;;12.82;10.95;;;;;;;-146.58;100.00;69501.63;5031277;28;20409;-58
2024/01/09 07:02:30;;;;;;;13.77;12.25;;;;;;;-146.58;100.00;69501.63;5032104;28;20021;-57
2024/01/09 07:04:56;;;;;;;22.30;11.00;;;;;;;-146.58;100.00;69501.63;5031368;28;20497;-58
2024/01/09 07:07:22;;;;;;;16.77;11.90;;;;;;;-146.58;100.00;69501.63;5032723;28;20025;-57
2024/01/09 07:09:47;;;;;;;15.98;10.32;;;;;;;-146.58;100.00;69501.63;5030635;28;20049;-58
2024/01/09 07:12:13;;;;;;;15.63;10.80;;;;;;;-146.58;100.00;69501.63;5031586;28;20052;-57
2024/01/09 07:14:38;;;;;;;12.57;9.02;;;;;;;-146.58;100.00;69501.63;5030680;28;20041;-58
2024/01/09 07:17:04;;;;;;;11.27;8.77;;;;;;;-146.58;100.00;69501.63;5032033;28;20448;-57
2024/01/09 07:19:30;;;;;;;13.38;10.48;;;;;;;-146.58;100.00;69501.63;5030945;28;20038;-57
2024/01/09 07:21:56;;;;;;;11.98;10.65;;;;;;;-146.58;100.00;69501.63;5031778;28;20040;-58
2024/01/09 07:24:22;;;;;;;11.88;10.32;;;;;;;-146.58;100.00;69501.63;5029318;28;20081;-57
2024/01/09 07:26:47;;;;;;;13.05;11.10;;;;;;;-146.58;100.00;69501.63;5031468;28;20017;-57
2024/01/09 07:29:16;;;;;;;16.95;9.63;;;;;;;-146.58;100.00;69501.63;5029131;28;20541;-57
2024/01/09 07:31:42;;;;;;;15.82;10.77;;;;;;;-146.58;100.00;69501.63;5031570;28;20072;-57
2024/01/09 07:34:07;;;;;;;14.68;10.32;;;;;;;-146.58;100.00;69501.63;5030761;28;20116;-58
2024/01/09 07:36:33;;;;;;;10.48;8.98;;;;;;;-146.58;100.00;69501.63;5031714;28;20025;-58
2024/01/09 07:38:58;;;;;;;10.35;9.13;;;;;;;-146.58;100.00;69501.63;5030344;28;20502;-58
2024/01/09 07:41:23;;;;;;;16.13;9.82;;;;;;;-146.58;100.00;69501.63;5032114;28;20025;-57
2024/01/09 07:43:49;;;;;;;14.43;9.93;;;;;;;-146.58;100.00;69501.63;5030401;28;20021;-57
2024/01/09 07:46:14;;;;;;;12.13;9.43;;;;;;;-146.58;100.00;69501.63;5031437;28;20028;-58
2024/01/09 07:48:40;;;;;;;16.25;12.48;;;;;;;-146.58;100.00;69501.63;5030467;28;20752;-57
2024/01/09 07:51:05;;;;;;;17.95;13.13;;;;;;;-146.58;100.00;69501.63;5031826;28;20018;-58
2024/01/09 07:53:31;;;;;;;11.80;10.50;;;;;;;-146.58;100.00;69501.63;5029765;28;20100;-56
2024/01/09 07:55:56;;;;;;;16.60;12.65;;;;;;;-146.58;100.00;69501.63;5031876;28;20024;-57
2024/01/09 07:58:21;;;;;;;18.52;10.98;;;;;;;-146.58;100.00;69501.63;5031554;28;20025;-57
2024/01/09 08:00:47;;;;;;;16.80;9.55;;;;;;;-146.58;100.00;69501.63;5029262;28;20045;-59
2024/01/09 08:03:14;;;;;;;12.75;10.10;;;;;;;-146.58;100.00;69501.63;5031791;28;20026;-58
2024/01/09 08:05:39;;;;;;;12.70;8.93;;;;;;;-146.58;100.00;69501.63;5030015;28;20440;-59
2024/01/09 08:08:05;;;;;;;14.90;10.05;;;;;;;-146.58;100.00;69501.63;5031203;28;20078;-58
2024/01/09 08:10:31;;;;;;;11.88;10.10;;;;;;;-146.58;100.00;69501.63;5029960;28;20448;-59
2024/01/09 08:12:56;;;;;;;14.80;11.38;;;;;;;-146.58;100.00;69501.63;5031711;28;20026;-58
2024/01/09 08:15:21;;;;;;;14.70;10.50;;;;;;;-146.58;100.00;69501.63;5029599;28;20412;-59
2024/01/09 08:17:47;;;;;;;16.05;10.20;;;;;;;-146.58;100.00;69501.63;5031076;28;20103;-59
2024/01/09 08:20:12;;;;;;;11.40;9.35;;;;;;;-146.58;100.00;69501.63;5029854;28;20049;-59
2024/01/09 08:22:38;;;;;;;14.25;10.05;;;;;;;-146.58;100.00;69501.63;5030835;28;20602;-59
2024/01/09 08:25:04;;;;;;;16.42;11.35;;;;;;;-146.58;100.00;69501.63;5029780;28;20045;-59
2024/01/09 08:27:29;;;;;;;13.90;10.90;;;;;;;-146.58;100.00;69501.63;5031072;28;20027;-59
2024/01/09 08:29:55;;;;;;;13.68;11.13;;;;;;;-146.58;100.00;69501.63;5029691;28;20049;-59
2024/01/09 08:32:22;;;;;;;14.45;10.07;;;;;;;-146.58;100.00;69501.63;5031307;28;20473;-59
2024/01/09 08:34:47;;;;;;;12.85;9.27;;;;;;;-146.58;100.00;69501.63;5029513;28;20047;-58
2024/01/09 08:37:13;;;;;;;10.27;9.00;;;;;;;-146.58;100.00;69501.63;5030750;28;20022;-59
2024/01/09 08:39:38;;;;;;;12.63;9.20;;;;;;;-146.58;100.00;69501.63;5029338;28;20065;-58
2024/01/09 08:42:04;;;;;;;11.63;9.65;;;;;;;-146.58;100.00;69501.63;5031033;28;20025;-58
2024/01/09 08:44:29;;;;;;;10.95;9.25;;;;;;;-146.58;100.00;69501.63;5029530;28;20168;-59
2024/01/09 08:46:55;;;;;;;12.55;9.60;;;;;;;-146.58;100.00;69501.63;5030958;28;20025;-59
2024/01/09 08:49:20;;;;;;;11.00;8.60;;;;;;;-146.58;100.00;69501.63;5029665;28;20100;-58
2024/01/09 08:51:45;;;;;;;12.20;10.85;;;;;;;-146.58;100.00;69501.63;5030803;28;20017;-59
2024/01/09 08:54:11;;;;;;;21.95;11.73;;;;;;;-146.58;100.00;69501.63;5030484;28;20025;-59
2024/01/09 08:56:36;;;;;;;15.40;8.65;;;;;;;-146.58;100.00;69501.63;5029108;28;20582;-59
2024/01/09 08:59:01;;;;;;;10.13;9.02;;;;;;;-146.58;100.00;69501.63;5030969;28;20028;-58
2024/01/09 09:01:27;;;;;;;15.55;12.20;;;;;;;-146.58;100.00;69501.63;5033333;28;20496;-59
2024/01/09 09:03:53;;;;;;;10.63;8.52;;;;;;;-146.58;100.00;69501.63;5036967;28;20060;-59
2024/01/09 09:06:18;;;;;;;12.60;9.18;;;;;;;-146.58;100.00;69501.63;5035862;28;20052;-58
2024/01/09 09:08:44;;;;;;;13.07;10.90;;;;;;;-146.58;100.00;69501.63;5036878;28;20021;-59
2024/01/09 09:11:15;;;;;;;16.52;8.60;;;;;;;-146.58;100.00;69501.63;5035901;28;20390;-59
2024/01/09 09:13:43;;;;;;;10.90;9.90;;;;;;;-146.58;100.00;69501.63;5036406;28;20481;-59
2024/01/09 09:16:09;;;;;;;8.60;7.72;;;;;;;-146.58;100.00;69501.63;5035639;28;20072;-59
2024/01/09 09:18:34;;;;;;;16.15;9.70;;;;;;;-146.58;100.00;69501.63;5037058;28;20033;-59
2024/01/09 09:21:01;;;;;;;17.35;12.07;;;;;;;-146.58;100.00;69501.63;5035929;28;20048;-59
2024/01/09 09:23:26;;;;;;;13.57;11.25;;;;;;;-146.58;100.00;69501.63;5036658;28;20034;-59
2024/01/09 09:25:52;;;;;;;11.80;10.40;;;;;;;-146.58;100.00;69501.63;5035535;28;20049;-59
2024/01/09 09:28:17;;;;;;;11.13;8.25;;;;;;;-146.58;100.00;69501.63;5037349;28;20021;-59
2024/01/09 09:30:43;;;;;;;8.32;7.53;;;;;;;-146.58;100.00;69501.63;5035250;28;20045;-61
2024/01/09 09:33:08;;;;;;;14.90;10.55;;;;;;;-146.58;100.00;69501.63;5037364;28;20024;-59
2024/01/09 09:35:35;;;;;;;9.55;8.57;;;;;;;-146.58;100.00;69501.63;5035460;28;20041;-59
2024/01/09 09:38:01;;;;;;;10.40;8.07;;;;;;;-146.58;100.00;69501.63;5036323;28;20588;-59
2024/01/09 09:40:26;;;;;;;9.82;8.90;;;;;;;-146.58;100.00;69501.63;5035577;28;20048;-59
2024/01/09 09:42:57;;;;;;;13.38;9.70;;;;;;;-146.58;100.00;69501.63;5037136;28;20022;-59
2024/01/09 09:45:25;;;;;;;7.90;7.05;;;;;;;-146.58;100.00;69501.63;5035418;28;20038;-59
2024/01/09 09:47:54;;;;;;;8.82;7.32;;;;;;;-146.58;100.00;69501.63;5036979;28;20045;-60
2024/01/09 09:50:21;;;;;;;11.32;9.05;;;;;;;-146.58;100.00;69501.63;5035513;28;20053;-59
2024/01/09 09:52:46;;;;;;;9.00;7.18;;;;;;;-146.58;100.00;69501.63;5036343;28;20025;-59
2024/01/09 09:55:11;;;;;;;9.27;7.70;;;;;;;-146.58;100.00;69501.63;5035323;28;20052;-59
2024/01/09 09:57:37;;;;;;;9.23;7.03;;;;;;;-146.58;100.00;69501.63;5036821;28;20032;-60
2024/01/09 10:00:08;;;;;;;13.93;7.72;;;;;;;-146.58;100.00;69501.63;5035071;28;20057;-59
2024/01/09 10:02:34;;;;;;;9.20;7.78;;;;;;;-146.58;100.00;69501.63;5036561;28;20028;-59
2024/01/09 10:05:13;;;;;;;9.70;7.13;;;;;;;-146.58;100.00;69501.63;5035543;28;20042;-59
2024/01/09 10:07:40;;;;;;;8.80;6.25;;;;;;;-146.58;100.00;69501.63;5036404;28;20473;-59
2024/01/09 10:10:08;;;;;;;8.13;6.25;;;;;;;-146.58;100.00;69501.63;5035384;28;20049;-59
2024/01/09 10:12:33;;;;;;;10.10;9.05;;;;;;;-146.58;100.00;69501.63;5033710;28;20384;-59
2024/01/09 10:15:09;;;;;;;8.27;6.53;;;;;;;-146.58;100.00;69501.63;5031600;28;20041;-59
2024/01/09 10:17:41;;;;;;;10.02;7.53;;;;;;;-146.58;100.00;69501.63;5032182;28;20568;-59
2024/01/09 10:20:08;;;;;;;9.73;7.70;;;;;;;-146.58;100.00;69501.63;5030800;28;20045;-59
2024/01/09 10:22:35;;;;;;;9.23;7.57;;;;;;;-146.58;100.00;69501.63;5031646;28;20037;-60
2024/01/09 10:25:12;;;;;;;8.75;5.97;;;;;;;-146.58;100.00;69501.63;5031696;28;20041;-59
2024/01/09 10:27:38;;;;;;;9.50;7.20;;;;;;;-146.58;100.00;69501.63;5032809;28;20477;-59
2024/01/09 10:30:05;;;;;;;7.78;5.95;;;;;;;-146.58;100.00;69501.63;5031520;28;20493;-59
2024/01/09 10:32:35;;;;;;;8.20;6.95;;;;;;;-146.58;100.00;69501.63;5033281;28;20091;-60
2024/01/09 10:35:03;;;;;;;11.45;7.88;;;;;;;-146.58;100.00;69501.63;5031851;28;20060;-59
2024/01/09 10:37:29;;;;;;;11.20;8.23;;;;;;;-146.58;100.00;69501.63;5032694;28;20409;-60
2024/01/09 10:39:54;;;;;;;11.68;8.40;;;;;;;-146.58;100.00;69501.63;5031903;28;20061;-59
2024/01/09 10:42:20;;;;;;;12.05;9.57;;;;;;;-146.58;100.00;69501.63;5033459;28;20037;-59
2024/01/09 10:44:47;;;;;;;14.32;8.93;;;;;;;-146.58;100.00;69501.63;5030978;28;20401;-59
2024/01/09 10:47:14;;;;;;;8.65;6.35;;;;;;;-146.58;100.00;69501.63;5033421;28;20052;-59
2024/01/09 10:49:43;;;;;;;10.88;7.55;;;;;;;-146.58;100.00;69501.63;5031356;28;20439;-59
2024/01/09 10:52:13;;;;;;;8.35;7.07;;;;;;;-146.58;100.00;69501.63;5032613;28;20139;-59
2024/01/09 10:54:40;;;;;;;9.52;7.65;;;;;;;-146.58;100.00;69501.63;5031366;28;20033;-59
2024/01/09 10:57:07;;;;;;;7.72;6.72;;;;;;;-146.58;100.00;69501.63;5033228;28;20040;-59